This is the latest recevied weather packets stored in our database for station/object EA1GLE. If no packets are shown the sender has not sent any weather packets the latest 10 day(s).
| Time | Temp. | Humidity | Pressure | Rain* | Wind** | Luminosity | Snow |
|---|---|---|---|---|---|---|---|
| 1777427103 | 12.22° C | 99% | 1011.1 hPa | 0.25 mm | - | 0 W/m² | - |
| 1777422424 | 12.22° C | 99% | 1012.1 hPa | 0.51 mm | - | 0 W/m² | - |
| 1777418824 | 12.22° C | 99% | 1012.9 hPa | 0.51 mm | - | 0 W/m² | - |
| 1777418284 | 12.78° C | 99% | 1012.6 hPa | 1.02 mm | - | 0 W/m² | - |
| 1777415898 | 12.78° C | 99% | 1013.3 hPa | 3.05 mm | - | 0 W/m² | - |
| 1777411624 | 12.78° C | 98% | 1012.9 hPa | 2.03 mm | - | 0 W/m² | - |
| 1777407618 | 13.89° C | 97% | 1013.4 hPa | 1.78 mm | - | 0 W/m² | - |
| 1777396683 | 17.22° C | 73% | 1012.1 hPa | 0 mm | - | 25 W/m² | - |
| 1777396278 | 17.22° C | 72% | 1012.2 hPa | 0 mm | - | 30 W/m² | - |
| 1777394704 | 17.78° C | 72% | 1012.1 hPa | 0 mm | - | 35 W/m² | - |
| 1777393083 | 18.33° C | 71% | 1011.8 hPa | 0 mm | - | 94 W/m² | - |
| 1777391238 | 18.89° C | 69% | 1012.1 hPa | 0 mm | - | 257 W/m² | - |
| 1777389484 | 20° C | 56% | 1012.2 hPa | 0 mm | - | 624 W/m² | - |
| 1777385883 | 20° C | 52% | 1012.8 hPa | 0 mm | - | 532 W/m² | - |
| 1777382823 | 20° C | 58% | 1013.3 hPa | 0 mm | - | 360 W/m² | - |
| 1777377246 | 19.44° C | 67% | 1014.5 hPa | 0 mm | - | 782 W/m² | - |
| 1777376703 | 18.89° C | 66% | 1014.8 hPa | 0 mm | - | 798 W/m² | - |
| 1777371077 | 16.67° C | 83% | 1016 hPa | 0 mm | - | 790 W/m² | - |
| 1777370403 | 16.11° C | 85% | 1015.9 hPa | 0 mm | - | 733 W/m² | - |
| 1777367884 | 14.44° C | 88% | 1016.1 hPa | 0 mm | - | 239 W/m² | - |
| 1777363878 | 13.33° C | 93% | 1016 hPa | 0 mm | - | 107 W/m² | - |
| 1777362304 | 12.78° C | 96% | 1016.2 hPa | 0 mm | - | 180 W/m² | - |
| 1777348804 | 11.11° C | 97% | 1016.2 hPa | 0 mm | - | 0 W/m² | - |
| 1777348577 | 11.11° C | 97% | 1016.3 hPa | 0 mm | - | 0 W/m² | - |
| 1777347498 | 11.11° C | 97% | 1016.2 hPa | 0 mm | - | 0 W/m² | - |
* Rain latest hour (hover to see other rain measurements)
** Current wind speed in m/s (hover to see current wind gust speed)